Time;durP1;ratioP1;P1;durP2;ratioP2;P2;SDS_P1;SDS_P2;PMS_P1;PMS_P2;Temp;Humidity;BMP_temperature;BMP_pressure;BME280_temperature;BME280_humidity;BME280_pressure;Samples;Min_cycle;Max_cycle;Signal;HPM_P1;HPM_P2
2021/12/03 00:01:19;;;;;;;16.70;7.57;;;0.60;99.90;;;;;;20688240;28;20038;-74
2021/12/03 00:11:20;;;;;;;13.25;7.10;;;0.60;99.90;;;;;;20705383;28;20131;-74
2021/12/03 00:21:22;;;;;;;36.92;10.70;;;0.60;99.90;;;;;;20710706;28;20120;-74
2021/12/03 00:31:23;;;;;;;15.90;7.72;;;0.70;99.90;;;;;;20704925;28;20042;-74
2021/12/03 00:41:24;;;;;;;17.40;6.43;;;0.70;99.90;;;;;;20704887;28;20036;-75
2021/12/03 00:51:27;;;;;;;11.15;5.57;;;0.70;99.90;;;;;;20702128;28;20029;-73
2021/12/03 01:01:27;;;;;;;10.30;5.50;;;0.70;99.90;;;;;;20703543;28;20045;-74
2021/12/03 01:11:28;;;;;;;13.25;5.70;;;0.70;99.90;;;;;;20703080;28;20479;-75
2021/12/03 01:21:30;;;;;;;9.50;5.35;;;0.90;99.90;;;;;;20703590;28;20033;-75
2021/12/03 01:31:30;;;;;;;9.98;6.05;;;0.80;99.90;;;;;;20718570;28;20030;-75
2021/12/03 01:41:33;;;;;;;8.52;5.05;;;0.90;99.90;;;;;;20716323;28;20038;-74
2021/12/03 01:51:33;;;;;;;17.65;6.90;;;0.90;99.90;;;;;;20717499;28;20562;-74
2021/12/03 02:01:34;;;;;;;20.95;7.47;;;0.90;99.90;;;;;;20714243;28;20042;-74
2021/12/03 02:11:36;;;;;;;13.60;5.88;;;0.80;99.90;;;;;;20715304;28;20037;-75
2021/12/03 02:21:37;;;;;;;8.23;4.93;;;0.80;99.90;;;;;;20750152;23;20050;-79
2021/12/03 02:31:37;;;;;;;15.20;5.53;;;0.80;99.90;;;;;;20705934;28;20373;-79
2021/12/03 02:41:38;;;;;;;15.73;5.38;;;0.70;99.90;;;;;;20774970;28;20078;-80
2021/12/03 02:51:40;;;;;;;11.23;5.40;;;0.70;99.90;;;;;;20778628;28;20033;-79
2021/12/03 03:01:41;;;;;;;13.93;5.53;;;0.70;99.90;;;;;;20784442;28;20127;-79
2021/12/03 03:11:42;;;;;;;16.25;6.28;;;0.70;99.90;;;;;;20771677;28;20025;-79
2021/12/03 03:21:44;;;;;;;17.60;6.05;;;0.70;99.90;;;;;;20773529;28;20030;-79
2021/12/03 03:31:46;;;;;;;10.88;5.00;;;0.70;99.90;;;;;;20770807;28;20045;-79
2021/12/03 03:41:47;;;;;;;9.25;4.28;;;0.70;99.90;;;;;;20772678;28;20045;-80
2021/12/03 03:51:49;;;;;;;9.68;4.78;;;0.80;99.90;;;;;;20768630;28;20052;-79
2021/12/03 04:01:51;;;;;;;9.93;4.85;;;0.80;99.90;;;;;;20766543;28;20068;-79
2021/12/03 04:11:52;;;;;;;12.60;4.65;;;0.80;99.90;;;;;;20766298;28;20034;-80
2021/12/03 04:21:53;;;;;;;7.93;4.40;;;0.90;99.90;;;;;;20765630;28;20041;-79
2021/12/03 04:31:54;;;;;;;9.95;5.18;;;0.90;99.90;;;;;;20764165;28;20562;-80
2021/12/03 04:41:55;;;;;;;14.00;5.40;;;0.80;99.90;;;;;;20766222;28;20058;-80
2021/12/03 04:51:56;;;;;;;10.02;4.55;;;0.80;99.90;;;;;;20764590;28;20029;-80
2021/12/03 05:01:58;;;;;;;9.48;4.75;;;0.70;99.90;;;;;;20778119;28;20077;-79
2021/12/03 05:12:00;;;;;;;14.25;4.43;;;0.70;99.90;;;;;;20773633;28;20072;-76
2021/12/03 05:22:00;;;;;;;15.27;4.63;;;0.60;99.90;;;;;;20758446;28;20041;-75
2021/12/03 05:32:01;;;;;;;11.18;4.53;;;0.50;99.90;;;;;;20757306;28;20432;-76
2021/12/03 05:42:04;;;;;;;11.45;5.05;;;0.50;99.90;;;;;;20756429;28;20558;-75
2021/12/03 05:52:06;;;;;;;12.75;5.13;;;0.30;99.90;;;;;;20756255;28;20034;-75
2021/12/03 06:02:06;;;;;;;13.80;5.70;;;0.20;99.90;;;;;;20755718;28;20488;-75
2021/12/03 06:12:08;;;;;;;13.18;5.93;;;0.10;99.90;;;;;;20754356;28;20108;-75
2021/12/03 06:22:10;;;;;;;19.75;5.90;;;0.00;99.90;;;;;;20753826;28;20026;-75
2021/12/03 06:32:11;;;;;;;22.92;6.28;;;-0.20;99.90;;;;;;20763601;28;20480;-80
2021/12/03 06:42:12;;;;;;;18.50;7.13;;;-0.20;99.90;;;;;;20768159;28;20104;-80
2021/12/03 06:52:15;;;;;;;13.30;6.22;;;-0.20;99.90;;;;;;20721516;28;20488;-79
2021/12/03 07:02:16;;;;;;;14.80;7.10;;;-0.30;99.90;;;;;;20693878;28;20034;-80
2021/12/03 07:12:17;;;;;;;13.80;6.03;;;-0.40;99.90;;;;;;20687412;28;20389;-80
2021/12/03 07:22:18;;;;;;;22.77;9.75;;;-0.40;99.90;;;;;;20689353;28;20041;-78
2021/12/03 07:32:21;;;;;;;15.10;7.03;;;-0.30;99.90;;;;;;20674735;28;20081;-80
2021/12/03 07:42:21;;;;;;;14.15;5.82;;;-0.50;99.90;;;;;;20670180;28;20100;-78
2021/12/03 07:52:23;;;;;;;12.10;6.63;;;-0.50;99.90;;;;;;20739598;28;20022;-78
2021/12/03 08:02:24;;;;;;;14.68;7.25;;;-0.10;99.90;;;;;;20683832;28;20045;-79
2021/12/03 08:12:25;;;;;;;13.88;6.32;;;0.10;99.90;;;;;;20719791;28;20037;-79
2021/12/03 08:22:26;;;;;;;19.52;8.40;;;1.30;99.90;;;;;;20695423;23;20053;-78
2021/12/03 08:32:27;;;;;;;23.73;8.45;;;1.90;99.90;;;;;;20678102;28;20030;-78
2021/12/03 08:42:28;;;;;;;10.85;6.20;;;2.10;99.90;;;;;;20675528;28;20037;-78
2021/12/03 09:02:32;;;;;;;9.27;5.13;;;3.20;99.90;;;;;;20614002;28;20038;-79
2021/12/03 09:12:33;;;;;;;15.30;6.95;;;3.80;99.90;;;;;;20595582;28;20125;-80
2021/12/03 09:32:39;;;;;;;14.70;6.72;;;2.90;99.90;;;;;;20593827;28;20039;-79
2021/12/03 09:42:40;;;;;;;11.88;6.10;;;3.40;99.90;;;;;;20589534;28;20125;-78
2021/12/03 10:13:25;;;;;;;12.43;6.22;;;4.60;99.90;;;;;;20601076;28;20038;-76
2021/12/03 10:44:20;;;;;;;9.48;3.28;;;5.30;99.90;;;;;;20600501;28;20701;-79
2021/12/03 12:08:29;;;;;;;4.60;3.13;;;3.90;99.90;;;;;;20598451;28;20035;-78
2021/12/03 14:42:49;;;;;;;11.57;4.00;;;5.00;99.90;;;;;;20555664;28;20098;-76
2021/12/03 16:04:50;;;;;;;8.25;3.85;;;1.70;99.90;;;;;;20549866;28;20062;-77
2021/12/03 16:55:31;;;;;;;9.68;3.95;;;1.70;99.90;;;;;;20554622;28;20053;-77
2021/12/03 17:16:13;;;;;;;6.97;4.30;;;1.80;99.90;;;;;;20544880;28;20034;-79
2021/12/03 17:47:22;;;;;;;11.38;4.43;;;1.30;99.90;;;;;;20550305;28;20110;-77
2021/12/03 17:57:51;;;;;;;7.00;4.63;;;1.30;99.90;;;;;;20547214;28;20502;-77
2021/12/03 18:07:58;;;;;;;11.02;5.38;;;1.20;99.90;;;;;;20550676;28;20043;-77
2021/12/03 18:59:25;;;;;;;10.32;5.10;;;1.00;99.90;;;;;;20558043;28;20445;-78
2021/12/03 19:09:30;;;;;;;10.80;5.47;;;1.10;99.90;;;;;;20570589;28;20039;-77
2021/12/03 19:19:36;;;;;;;8.65;5.00;;;1.10;99.90;;;;;;20557478;28;20043;-77
2021/12/03 19:29:38;;;;;;;8.40;5.00;;;1.10;99.90;;;;;;20545123;28;20130;-77
2021/12/03 19:39:39;;;;;;;9.93;5.72;;;1.10;99.90;;;;;;20549850;28;20034;-78
2021/12/03 19:59:42;;;;;;;9.55;5.75;;;1.00;99.90;;;;;;20550502;28;20042;-77
2021/12/03 20:09:47;;;;;;;8.98;5.28;;;1.10;99.90;;;;;;20549433;28;20038;-77
2021/12/03 20:19:52;;;;;;;12.18;5.57;;;1.10;99.90;;;;;;20657098;22;20108;-74
2021/12/03 20:29:56;;;;;;;9.00;5.20;;;1.00;99.90;;;;;;20705837;28;20464;-74
2021/12/03 20:40:01;;;;;;;10.32;5.28;;;1.10;99.90;;;;;;20709959;28;20052;-72
2021/12/03 21:10:09;;;;;;;8.88;4.93;;;1.10;99.90;;;;;;20705899;28;20181;-74
2021/12/03 21:20:27;;;;;;;8.05;4.78;;;1.20;99.90;;;;;;20706629;28;20029;-76
2021/12/03 21:50:51;;;;;;;13.95;6.25;;;1.30;99.90;;;;;;20720461;28;20037;-75
2021/12/03 22:00:52;;;;;;;7.57;5.05;;;1.30;99.90;;;;;;20720349;28;20040;-76
2021/12/03 22:10:53;;;;;;;10.00;4.90;;;1.30;99.90;;;;;;20719179;28;20439;-75
2021/12/03 22:20:55;;;;;;;12.00;5.65;;;1.40;99.90;;;;;;20715827;28;20080;-76
2021/12/03 22:30:56;;;;;;;9.65;5.47;;;1.40;99.90;;;;;;20716051;28;20124;-75
2021/12/03 22:40:57;;;;;;;10.07;5.80;;;1.50;99.90;;;;;;20715035;28;20048;-76
2021/12/03 23:01:18;;;;;;;8.52;5.93;;;1.60;99.90;;;;;;20714987;28;20041;-74
2021/12/03 23:11:19;;;;;;;10.95;5.82;;;1.60;99.90;;;;;;20715997;28;20467;-74
2021/12/03 23:21:20;;;;;;;9.38;5.63;;;1.40;99.90;;;;;;20713715;28;20041;-75
2021/12/03 23:31:21;;;;;;;10.32;6.05;;;1.20;99.90;;;;;;20712729;28;20033;-74
2021/12/03 23:41:22;;;;;;;13.13;6.93;;;1.10;99.90;;;;;;20711813;28;20669;-74
2021/12/03 23:51:25;;;;;;;11.25;6.95;;;1.00;99.90;;;;;;20711984;28;20104;-74
